sensor_id;sensor_type;location;lat;lon;timestamp;P1;durP1;ratioP1;P2;durP2;ratioP2
16189;SDS011;41754;51.498;7.540;2023-06-05T00:01:35;3.92;;;2.58;;
16189;SDS011;41754;51.498;7.540;2023-06-05T00:04:03;4.55;;;2.80;;
16189;SDS011;41754;51.498;7.540;2023-06-05T00:06:31;5.20;;;2.60;;
16189;SDS011;41754;51.498;7.540;2023-06-05T00:08:59;4.65;;;2.63;;
16189;SDS011;41754;51.498;7.540;2023-06-05T00:11:27;3.50;;;2.92;;
16189;SDS011;41754;51.498;7.540;2023-06-05T00:13:56;3.45;;;2.67;;
16189;SDS011;41754;51.498;7.540;2023-06-05T00:16:24;6.80;;;3.03;;
16189;SDS011;41754;51.498;7.540;2023-06-05T00:18:53;4.55;;;2.72;;
16189;SDS011;41754;51.498;7.540;2023-06-05T00:21:21;4.85;;;3.17;;
16189;SDS011;41754;51.498;7.540;2023-06-05T00:23:49;4.95;;;3.35;;
16189;SDS011;41754;51.498;7.540;2023-06-05T00:26:17;6.40;;;3.40;;
16189;SDS011;41754;51.498;7.540;2023-06-05T00:28:46;7.07;;;3.17;;
16189;SDS011;41754;51.498;7.540;2023-06-05T00:31:15;5.13;;;3.00;;
16189;SDS011;41754;51.498;7.540;2023-06-05T00:33:45;5.72;;;3.35;;
16189;SDS011;41754;51.498;7.540;2023-06-05T00:36:13;6.40;;;3.30;;
16189;SDS011;41754;51.498;7.540;2023-06-05T00:38:40;5.38;;;3.47;;
16189;SDS011;41754;51.498;7.540;2023-06-05T00:41:08;6.13;;;3.05;;
16189;SDS011;41754;51.498;7.540;2023-06-05T00:43:38;3.75;;;2.95;;
16189;SDS011;41754;51.498;7.540;2023-06-05T00:46:06;5.32;;;2.85;;
16189;SDS011;41754;51.498;7.540;2023-06-05T00:48:35;6.75;;;3.25;;
16189;SDS011;41754;51.498;7.540;2023-06-05T00:51:03;9.77;;;3.42;;
16189;SDS011;41754;51.498;7.540;2023-06-05T00:53:32;4.65;;;2.78;;
16189;SDS011;41754;51.498;7.540;2023-06-05T00:56:02;7.07;;;3.28;;
16189;SDS011;41754;51.498;7.540;2023-06-05T00:58:30;5.45;;;3.20;;
16189;SDS011;41754;51.498;7.540;2023-06-05T01:00:58;4.45;;;3.17;;
16189;SDS011;41754;51.498;7.540;2023-06-05T01:03:30;5.68;;;3.38;;
16189;SDS011;41754;51.498;7.540;2023-06-05T01:06:01;5.40;;;3.35;;
16189;SDS011;41754;51.498;7.540;2023-06-05T01:08:30;6.72;;;3.22;;
16189;SDS011;41754;51.498;7.540;2023-06-05T01:11:09;6.85;;;3.40;;
16189;SDS011;41754;51.498;7.540;2023-06-05T01:13:45;4.68;;;3.40;;
16189;SDS011;41754;51.498;7.540;2023-06-05T01:16:24;5.00;;;3.28;;
16189;SDS011;41754;51.498;7.540;2023-06-05T01:18:58;4.82;;;3.40;;
16189;SDS011;41754;51.498;7.540;2023-06-05T01:21:30;3.70;;;3.33;;
16189;SDS011;41754;51.498;7.540;2023-06-05T01:24:00;5.13;;;3.13;;
16189;SDS011;41754;51.498;7.540;2023-06-05T01:26:30;3.75;;;2.92;;
16189;SDS011;41754;51.498;7.540;2023-06-05T01:29:04;4.80;;;3.40;;
16189;SDS011;41754;51.498;7.540;2023-06-05T01:31:34;3.45;;;3.13;;
16189;SDS011;41754;51.498;7.540;2023-06-05T01:34:05;4.53;;;3.10;;
16189;SDS011;41754;51.498;7.540;2023-06-05T01:36:39;4.72;;;3.50;;
16189;SDS011;41754;51.498;7.540;2023-06-05T01:39:09;5.18;;;3.38;;
16189;SDS011;41754;51.498;7.540;2023-06-05T01:41:39;5.13;;;3.10;;
16189;SDS011;41754;51.498;7.540;2023-06-05T01:44:08;4.55;;;3.50;;
16189;SDS011;41754;51.498;7.540;2023-06-05T01:46:40;6.53;;;3.90;;
16189;SDS011;41754;51.498;7.540;2023-06-05T01:49:09;9.07;;;3.40;;
16189;SDS011;41754;51.498;7.540;2023-06-05T01:51:37;6.38;;;3.40;;
16189;SDS011;41754;51.498;7.540;2023-06-05T01:54:05;6.25;;;3.55;;
16189;SDS011;41754;51.498;7.540;2023-06-05T01:56:35;11.32;;;4.20;;
16189;SDS011;41754;51.498;7.540;2023-06-05T01:59:04;5.80;;;3.05;;
16189;SDS011;41754;51.498;7.540;2023-06-05T02:01:33;5.88;;;3.67;;
16189;SDS011;41754;51.498;7.540;2023-06-05T02:04:02;5.57;;;3.40;;
16189;SDS011;41754;51.498;7.540;2023-06-05T02:06:32;5.15;;;3.45;;
16189;SDS011;41754;51.498;7.540;2023-06-05T02:09:08;7.47;;;3.28;;
16189;SDS011;41754;51.498;7.540;2023-06-05T02:11:38;6.28;;;3.60;;
16189;SDS011;41754;51.498;7.540;2023-06-05T02:14:09;6.72;;;3.65;;
16189;SDS011;41754;51.498;7.540;2023-06-05T02:16:40;7.63;;;3.90;;
16189;SDS011;41754;51.498;7.540;2023-06-05T02:19:08;5.95;;;3.42;;
16189;SDS011;41754;51.498;7.540;2023-06-05T02:21:37;5.47;;;3.65;;
16189;SDS011;41754;51.498;7.540;2023-06-05T02:24:05;5.43;;;3.85;;
16189;SDS011;41754;51.498;7.540;2023-06-05T02:26:34;6.75;;;4.70;;
16189;SDS011;41754;51.498;7.540;2023-06-05T02:29:03;6.13;;;3.55;;
16189;SDS011;41754;51.498;7.540;2023-06-05T02:31:31;5.07;;;4.32;;
16189;SDS011;41754;51.498;7.540;2023-06-05T02:34:00;5.63;;;3.92;;
16189;SDS011;41754;51.498;7.540;2023-06-05T02:36:28;6.72;;;4.07;;
16189;SDS011;41754;51.498;7.540;2023-06-05T02:38:59;7.13;;;4.00;;
16189;SDS011;41754;51.498;7.540;2023-06-05T02:41:28;5.50;;;3.50;;
16189;SDS011;41754;51.498;7.540;2023-06-05T02:43:56;5.53;;;3.88;;
16189;SDS011;41754;51.498;7.540;2023-06-05T02:46:27;8.27;;;4.37;;
16189;SDS011;41754;51.498;7.540;2023-06-05T02:48:55;5.38;;;3.67;;
16189;SDS011;41754;51.498;7.540;2023-06-05T02:51:24;6.67;;;4.17;;
16189;SDS011;41754;51.498;7.540;2023-06-05T02:53:52;6.40;;;4.30;;
16189;SDS011;41754;51.498;7.540;2023-06-05T02:56:21;6.85;;;4.25;;
16189;SDS011;41754;51.498;7.540;2023-06-05T02:58:53;6.07;;;4.17;;
16189;SDS011;41754;51.498;7.540;2023-06-05T03:01:23;4.17;;;3.77;;
16189;SDS011;41754;51.498;7.540;2023-06-05T03:03:53;7.93;;;4.40;;
16189;SDS011;41754;51.498;7.540;2023-06-05T03:06:23;9.02;;;4.55;;
16189;SDS011;41754;51.498;7.540;2023-06-05T03:08:55;7.10;;;5.07;;
16189;SDS011;41754;51.498;7.540;2023-06-05T03:11:23;6.77;;;4.57;;
16189;SDS011;41754;51.498;7.540;2023-06-05T03:13:52;5.67;;;4.40;;
16189;SDS011;41754;51.498;7.540;2023-06-05T03:16:23;7.50;;;4.57;;
16189;SDS011;41754;51.498;7.540;2023-06-05T03:19:02;6.13;;;4.72;;
16189;SDS011;41754;51.498;7.540;2023-06-05T03:21:29;6.03;;;4.93;;
16189;SDS011;41754;51.498;7.540;2023-06-05T03:23:58;6.60;;;4.67;;
16189;SDS011;41754;51.498;7.540;2023-06-05T03:26:27;5.23;;;4.70;;
16189;SDS011;41754;51.498;7.540;2023-06-05T03:28:55;6.93;;;5.07;;
16189;SDS011;41754;51.498;7.540;2023-06-05T03:31:23;6.57;;;4.70;;
16189;SDS011;41754;51.498;7.540;2023-06-05T03:33:51;7.00;;;4.57;;
16189;SDS011;41754;51.498;7.540;2023-06-05T03:36:20;5.93;;;4.53;;
16189;SDS011;41754;51.498;7.540;2023-06-05T03:38:49;8.43;;;5.07;;
16189;SDS011;41754;51.498;7.540;2023-06-05T03:41:18;6.23;;;4.50;;
16189;SDS011;41754;51.498;7.540;2023-06-05T03:43:46;6.85;;;4.72;;
16189;SDS011;41754;51.498;7.540;2023-06-05T03:46:15;4.78;;;4.22;;
16189;SDS011;41754;51.498;7.540;2023-06-05T03:48:47;6.43;;;5.20;;
16189;SDS011;41754;51.498;7.540;2023-06-05T03:51:16;7.37;;;5.67;;
16189;SDS011;41754;51.498;7.540;2023-06-05T03:53:46;9.43;;;5.30;;
16189;SDS011;41754;51.498;7.540;2023-06-05T03:56:22;5.73;;;5.13;;
16189;SDS011;41754;51.498;7.540;2023-06-05T03:58:58;6.10;;;5.20;;
16189;SDS011;41754;51.498;7.540;2023-06-05T04:01:37;9.63;;;5.40;;
16189;SDS011;41754;51.498;7.540;2023-06-05T04:04:05;5.57;;;5.00;;
16189;SDS011;41754;51.498;7.540;2023-06-05T04:06:35;5.87;;;5.20;;
16189;SDS011;41754;51.498;7.540;2023-06-05T04:09:06;6.70;;;5.17;;
16189;SDS011;41754;51.498;7.540;2023-06-05T04:11:39;5.40;;;4.90;;
16189;SDS011;41754;51.498;7.540;2023-06-05T04:14:09;5.07;;;4.57;;
16189;SDS011;41754;51.498;7.540;2023-06-05T04:16:37;5.57;;;4.73;;
16189;SDS011;41754;51.498;7.540;2023-06-05T04:19:07;8.07;;;5.60;;
16189;SDS011;41754;51.498;7.540;2023-06-05T04:21:39;7.32;;;5.10;;
16189;SDS011;41754;51.498;7.540;2023-06-05T04:24:09;6.95;;;5.32;;
16189;SDS011;41754;51.498;7.540;2023-06-05T04:26:38;8.13;;;5.57;;
16189;SDS011;41754;51.498;7.540;2023-06-05T04:29:07;6.68;;;5.85;;
16189;SDS011;41754;51.498;7.540;2023-06-05T04:31:40;9.95;;;5.88;;
16189;SDS011;41754;51.498;7.540;2023-06-05T04:34:09;9.00;;;5.78;;
16189;SDS011;41754;51.498;7.540;2023-06-05T04:36:39;7.30;;;5.57;;
16189;SDS011;41754;51.498;7.540;2023-06-05T04:39:10;6.50;;;5.30;;
16189;SDS011;41754;51.498;7.540;2023-06-05T04:41:42;6.03;;;5.43;;
16189;SDS011;41754;51.498;7.540;2023-06-05T04:44:15;7.23;;;5.83;;
16189;SDS011;41754;51.498;7.540;2023-06-05T04:46:44;7.87;;;5.80;;
16189;SDS011;41754;51.498;7.540;2023-06-05T04:49:13;9.20;;;5.43;;
16189;SDS011;41754;51.498;7.540;2023-06-05T04:51:43;6.65;;;5.93;;
16189;SDS011;41754;51.498;7.540;2023-06-05T04:54:13;7.90;;;5.57;;
16189;SDS011;41754;51.498;7.540;2023-06-05T04:56:41;7.43;;;5.95;;
16189;SDS011;41754;51.498;7.540;2023-06-05T04:59:11;6.25;;;5.63;;
16189;SDS011;41754;51.498;7.540;2023-06-05T05:01:40;10.70;;;6.53;;
16189;SDS011;41754;51.498;7.540;2023-06-05T05:04:08;6.95;;;6.03;;
16189;SDS011;41754;51.498;7.540;2023-06-05T05:06:38;7.10;;;5.20;;
16189;SDS011;41754;51.498;7.540;2023-06-05T05:09:07;8.95;;;5.55;;
16189;SDS011;41754;51.498;7.540;2023-06-05T05:11:37;5.82;;;5.13;;
16189;SDS011;41754;51.498;7.540;2023-06-05T05:14:05;7.38;;;6.07;;
16189;SDS011;41754;51.498;7.540;2023-06-05T05:16:33;7.82;;;5.78;;
16189;SDS011;41754;51.498;7.540;2023-06-05T05:19:04;8.35;;;6.32;;
16189;SDS011;41754;51.498;7.540;2023-06-05T05:21:33;8.75;;;6.35;;
16189;SDS011;41754;51.498;7.540;2023-06-05T05:24:02;7.38;;;5.72;;
16189;SDS011;41754;51.498;7.540;2023-06-05T05:26:30;7.30;;;6.25;;
16189;SDS011;41754;51.498;7.540;2023-06-05T05:28:59;7.75;;;5.93;;
16189;SDS011;41754;51.498;7.540;2023-06-05T05:31:27;7.65;;;6.28;;
16189;SDS011;41754;51.498;7.540;2023-06-05T05:33:56;7.07;;;6.20;;
16189;SDS011;41754;51.498;7.540;2023-06-05T05:36:24;12.38;;;6.40;;
16189;SDS011;41754;51.498;7.540;2023-06-05T05:38:52;7.40;;;5.88;;
16189;SDS011;41754;51.498;7.540;2023-06-05T05:41:20;8.40;;;6.13;;
16189;SDS011;41754;51.498;7.540;2023-06-05T05:43:48;6.30;;;5.80;;
16189;SDS011;41754;51.498;7.540;2023-06-05T05:46:17;7.95;;;5.70;;
16189;SDS011;41754;51.498;7.540;2023-06-05T05:48:45;8.68;;;5.93;;
16189;SDS011;41754;51.498;7.540;2023-06-05T05:51:13;11.13;;;6.57;;
16189;SDS011;41754;51.498;7.540;2023-06-05T05:53:41;10.25;;;6.15;;
16189;SDS011;41754;51.498;7.540;2023-06-05T05:56:09;7.40;;;5.88;;
16189;SDS011;41754;51.498;7.540;2023-06-05T05:58:37;12.18;;;6.07;;
16189;SDS011;41754;51.498;7.540;2023-06-05T06:01:05;7.30;;;6.25;;
16189;SDS011;41754;51.498;7.540;2023-06-05T06:03:34;7.82;;;5.95;;
16189;SDS011;41754;51.498;7.540;2023-06-05T06:06:04;6.88;;;6.03;;
16189;SDS011;41754;51.498;7.540;2023-06-05T06:08:33;7.05;;;5.80;;
16189;SDS011;41754;51.498;7.540;2023-06-05T06:11:01;6.78;;;5.30;;
16189;SDS011;41754;51.498;7.540;2023-06-05T06:13:33;6.38;;;5.25;;
16189;SDS011;41754;51.498;7.540;2023-06-05T06:16:01;6.57;;;5.85;;
16189;SDS011;41754;51.498;7.540;2023-06-05T06:18:30;8.38;;;5.57;;
16189;SDS011;41754;51.498;7.540;2023-06-05T06:21:00;8.02;;;6.18;;
16189;SDS011;41754;51.498;7.540;2023-06-05T06:23:28;7.18;;;6.03;;
16189;SDS011;41754;51.498;7.540;2023-06-05T06:25:56;8.82;;;6.05;;
16189;SDS011;41754;51.498;7.540;2023-06-05T06:28:24;9.15;;;5.85;;
16189;SDS011;41754;51.498;7.540;2023-06-05T06:30:52;6.50;;;5.80;;
16189;SDS011;41754;51.498;7.540;2023-06-05T06:33:20;8.48;;;6.18;;
16189;SDS011;41754;51.498;7.540;2023-06-05T06:35:49;7.55;;;5.45;;
16189;SDS011;41754;51.498;7.540;2023-06-05T06:38:19;7.88;;;5.32;;
16189;SDS011;41754;51.498;7.540;2023-06-05T06:40:47;8.55;;;5.75;;
16189;SDS011;41754;51.498;7.540;2023-06-05T06:43:15;7.30;;;5.90;;
16189;SDS011;41754;51.498;7.540;2023-06-05T06:45:48;6.95;;;6.25;;
16189;SDS011;41754;51.498;7.540;2023-06-05T06:48:17;8.27;;;5.70;;
16189;SDS011;41754;51.498;7.540;2023-06-05T06:50:45;7.63;;;5.40;;
16189;SDS011;41754;51.498;7.540;2023-06-05T06:53:13;7.00;;;5.35;;
16189;SDS011;41754;51.498;7.540;2023-06-05T06:55:42;5.30;;;4.80;;
16189;SDS011;41754;51.498;7.540;2023-06-05T06:58:10;7.10;;;5.47;;
16189;SDS011;41754;51.498;7.540;2023-06-05T07:00:38;8.82;;;5.55;;
16189;SDS011;41754;51.498;7.540;2023-06-05T07:03:07;10.13;;;5.97;;
16189;SDS011;41754;51.498;7.540;2023-06-05T07:05:35;8.98;;;5.47;;
16189;SDS011;41754;51.498;7.540;2023-06-05T07:08:04;8.65;;;6.57;;
16189;SDS011;41754;51.498;7.540;2023-06-05T07:10:32;6.80;;;5.70;;
16189;SDS011;41754;51.498;7.540;2023-06-05T07:13:01;9.55;;;5.75;;
16189;SDS011;41754;51.498;7.540;2023-06-05T07:15:29;9.13;;;5.25;;
16189;SDS011;41754;51.498;7.540;2023-06-05T07:17:56;6.30;;;5.03;;
16189;SDS011;41754;51.498;7.540;2023-06-05T07:20:24;10.57;;;6.13;;
16189;SDS011;41754;51.498;7.540;2023-06-05T07:22:52;8.45;;;5.82;;
16189;SDS011;41754;51.498;7.540;2023-06-05T07:25:20;9.55;;;6.18;;
16189;SDS011;41754;51.498;7.540;2023-06-05T07:27:50;9.05;;;5.75;;
16189;SDS011;41754;51.498;7.540;2023-06-05T07:30:20;10.38;;;6.40;;
16189;SDS011;41754;51.498;7.540;2023-06-05T07:32:48;9.35;;;5.55;;
16189;SDS011;41754;51.498;7.540;2023-06-05T07:35:16;8.27;;;5.75;;
16189;SDS011;41754;51.498;7.540;2023-06-05T07:37:44;8.23;;;5.90;;
16189;SDS011;41754;51.498;7.540;2023-06-05T07:40:11;7.22;;;5.47;;
16189;SDS011;41754;51.498;7.540;2023-06-05T07:42:39;8.10;;;6.60;;
16189;SDS011;41754;51.498;7.540;2023-06-05T07:45:07;8.65;;;6.38;;
16189;SDS011;41754;51.498;7.540;2023-06-05T07:47:37;6.30;;;5.70;;
16189;SDS011;41754;51.498;7.540;2023-06-05T07:50:06;9.30;;;6.13;;
16189;SDS011;41754;51.498;7.540;2023-06-05T07:52:35;8.93;;;5.32;;
16189;SDS011;41754;51.498;7.540;2023-06-05T07:55:03;11.95;;;5.90;;
16189;SDS011;41754;51.498;7.540;2023-06-05T07:57:33;7.25;;;5.07;;
16189;SDS011;41754;51.498;7.540;2023-06-05T08:00:01;6.18;;;4.93;;
16189;SDS011;41754;51.498;7.540;2023-06-05T08:02:39;6.95;;;5.07;;
16189;SDS011;41754;51.498;7.540;2023-06-05T08:05:07;7.20;;;5.05;;
16189;SDS011;41754;51.498;7.540;2023-06-05T08:07:36;9.13;;;5.03;;
16189;SDS011;41754;51.498;7.540;2023-06-05T08:10:05;5.63;;;4.95;;
16189;SDS011;41754;51.498;7.540;2023-06-05T08:12:34;6.45;;;5.22;;
16189;SDS011;41754;51.498;7.540;2023-06-05T08:15:02;7.95;;;5.05;;
16189;SDS011;41754;51.498;7.540;2023-06-05T08:17:30;7.05;;;4.93;;
16189;SDS011;41754;51.498;7.540;2023-06-05T08:19:59;6.18;;;4.38;;
16189;SDS011;41754;51.498;7.540;2023-06-05T08:22:27;5.18;;;4.68;;
16189;SDS011;41754;51.498;7.540;2023-06-05T08:24:55;5.50;;;4.90;;
16189;SDS011;41754;51.498;7.540;2023-06-05T08:27:26;7.43;;;5.47;;
16189;SDS011;41754;51.498;7.540;2023-06-05T08:29:53;5.97;;;4.55;;
16189;SDS011;41754;51.498;7.540;2023-06-05T08:32:21;5.97;;;4.07;;
16189;SDS011;41754;51.498;7.540;2023-06-05T08:34:49;9.23;;;5.28;;
16189;SDS011;41754;51.498;7.540;2023-06-05T08:37:18;7.10;;;4.43;;
16189;SDS011;41754;51.498;7.540;2023-06-05T08:39:46;11.57;;;10.30;;
16189;SDS011;41754;51.498;7.540;2023-06-05T08:42:14;7.68;;;4.93;;
16189;SDS011;41754;51.498;7.540;2023-06-05T08:44:45;6.97;;;4.18;;
16189;SDS011;41754;51.498;7.540;2023-06-05T08:47:28;5.55;;;4.50;;
16189;SDS011;41754;51.498;7.540;2023-06-05T08:49:57;9.10;;;4.50;;
16189;SDS011;41754;51.498;7.540;2023-06-05T08:52:32;6.57;;;4.45;;
16189;SDS011;41754;51.498;7.540;2023-06-05T08:55:02;7.13;;;4.75;;
16189;SDS011;41754;51.498;7.540;2023-06-05T08:57:31;7.63;;;4.85;;
16189;SDS011;41754;51.498;7.540;2023-06-05T08:59:59;6.80;;;4.80;;
16189;SDS011;41754;51.498;7.540;2023-06-05T09:02:33;6.20;;;4.18;;
16189;SDS011;41754;51.498;7.540;2023-06-05T09:05:03;7.63;;;4.13;;
16189;SDS011;41754;51.498;7.540;2023-06-05T09:07:34;5.97;;;4.40;;
16189;SDS011;41754;51.498;7.540;2023-06-05T09:10:03;5.47;;;4.13;;
16189;SDS011;41754;51.498;7.540;2023-06-05T09:12:32;4.72;;;3.88;;
16189;SDS011;41754;51.498;7.540;2023-06-05T09:14:59;7.47;;;4.10;;
16189;SDS011;41754;51.498;7.540;2023-06-05T09:18:04;7.32;;;3.90;;
16189;SDS011;41754;51.498;7.540;2023-06-05T09:20:35;7.45;;;4.28;;
16189;SDS011;41754;51.498;7.540;2023-06-05T09:25:54;5.15;;;4.25;;
16189;SDS011;41754;51.498;7.540;2023-06-05T09:28:25;6.70;;;4.20;;
16189;SDS011;41754;51.498;7.540;2023-06-05T09:30:57;4.95;;;3.63;;
16189;SDS011;41754;51.498;7.540;2023-06-05T09:33:26;4.40;;;3.83;;
16189;SDS011;41754;51.498;7.540;2023-06-05T09:36:05;4.20;;;3.42;;
16189;SDS011;41754;51.498;7.540;2023-06-05T09:38:36;8.10;;;4.22;;
16189;SDS011;41754;51.498;7.540;2023-06-05T09:41:05;7.03;;;4.40;;
16189;SDS011;41754;51.498;7.540;2023-06-05T09:43:34;4.88;;;4.18;;
16189;SDS011;41754;51.498;7.540;2023-06-05T09:46:07;8.43;;;6.22;;
16189;SDS011;41754;51.498;7.540;2023-06-05T09:48:36;5.88;;;4.10;;
16189;SDS011;41754;51.498;7.540;2023-06-05T09:51:08;10.38;;;4.57;;
16189;SDS011;41754;51.498;7.540;2023-06-05T09:53:43;5.82;;;4.38;;
16189;SDS011;41754;51.498;7.540;2023-06-05T09:56:12;7.13;;;4.00;;
16189;SDS011;41754;51.498;7.540;2023-06-05T09:58:43;6.70;;;4.15;;
16189;SDS011;41754;51.498;7.540;2023-06-05T10:01:14;7.15;;;3.65;;
16189;SDS011;41754;51.498;7.540;2023-06-05T10:03:44;4.13;;;3.72;;
16189;SDS011;41754;51.498;7.540;2023-06-05T10:06:16;4.50;;;4.05;;
16189;SDS011;41754;51.498;7.540;2023-06-05T10:08:51;6.60;;;4.45;;
16189;SDS011;41754;51.498;7.540;2023-06-05T10:11:22;4.80;;;4.40;;
16189;SDS011;41754;51.498;7.540;2023-06-05T10:13:52;11.15;;;8.50;;
16189;SDS011;41754;51.498;7.540;2023-06-05T10:16:20;5.45;;;4.70;;
16189;SDS011;41754;51.498;7.540;2023-06-05T10:18:52;5.60;;;4.18;;
16189;SDS011;41754;51.498;7.540;2023-06-05T10:21:22;7.28;;;4.53;;
16189;SDS011;41754;51.498;7.540;2023-06-05T10:23:53;7.75;;;5.07;;
16189;SDS011;41754;51.498;7.540;2023-06-05T10:26:38;6.47;;;4.50;;
16189;SDS011;41754;51.498;7.540;2023-06-05T10:29:23;8.50;;;4.80;;
16189;SDS011;41754;51.498;7.540;2023-06-05T10:32:12;5.60;;;4.43;;
16189;SDS011;41754;51.498;7.540;2023-06-05T10:34:48;6.30;;;4.05;;
16189;SDS011;41754;51.498;7.540;2023-06-05T10:37:39;6.25;;;3.80;;
16189;SDS011;41754;51.498;7.540;2023-06-05T10:40:17;8.60;;;4.22;;
16189;SDS011;41754;51.498;7.540;2023-06-05T10:42:45;5.97;;;4.03;;
16189;SDS011;41754;51.498;7.540;2023-06-05T10:45:22;6.90;;;4.13;;
16189;SDS011;41754;51.498;7.540;2023-06-05T10:47:56;6.38;;;3.40;;
16189;SDS011;41754;51.498;7.540;2023-06-05T10:50:25;6.00;;;3.83;;
16189;SDS011;41754;51.498;7.540;2023-06-05T10:52:57;5.38;;;3.60;;
16189;SDS011;41754;51.498;7.540;2023-06-05T10:55:41;6.60;;;3.78;;
16189;SDS011;41754;51.498;7.540;2023-06-05T10:58:10;4.50;;;3.90;;
16189;SDS011;41754;51.498;7.540;2023-06-05T11:03:57;6.50;;;3.55;;
16189;SDS011;41754;51.498;7.540;2023-06-05T11:06:25;4.10;;;3.20;;
16189;SDS011;41754;51.498;7.540;2023-06-05T11:09:10;5.63;;;4.00;;
16189;SDS011;41754;51.498;7.540;2023-06-05T11:12:00;4.82;;;3.80;;
16189;SDS011;41754;51.498;7.540;2023-06-05T11:14:44;5.18;;;3.53;;
16189;SDS011;41754;51.498;7.540;2023-06-05T11:17:25;3.85;;;3.30;;
16189;SDS011;41754;51.498;7.540;2023-06-05T11:19:54;6.00;;;3.40;;
16189;SDS011;41754;51.498;7.540;2023-06-05T11:22:22;5.75;;;3.25;;
16189;SDS011;41754;51.498;7.540;2023-06-05T11:27:56;5.63;;;3.40;;
16189;SDS011;41754;51.498;7.540;2023-06-05T11:30:26;4.75;;;3.22;;
16189;SDS011;41754;51.498;7.540;2023-06-05T11:33:14;4.25;;;3.20;;
16189;SDS011;41754;51.498;7.540;2023-06-05T11:35:44;3.83;;;3.22;;
16189;SDS011;41754;51.498;7.540;2023-06-05T11:38:14;5.47;;;3.28;;
16189;SDS011;41754;51.498;7.540;2023-06-05T11:40:47;4.45;;;3.60;;
16189;SDS011;41754;51.498;7.540;2023-06-05T11:43:16;4.28;;;3.40;;
16189;SDS011;41754;51.498;7.540;2023-06-05T11:45:48;6.60;;;3.22;;
16189;SDS011;41754;51.498;7.540;2023-06-05T11:48:17;6.18;;;3.22;;
16189;SDS011;41754;51.498;7.540;2023-06-05T11:50:51;4.30;;;3.97;;
16189;SDS011;41754;51.498;7.540;2023-06-05T11:53:21;5.45;;;3.60;;
16189;SDS011;41754;51.498;7.540;2023-06-05T11:55:50;6.28;;;3.00;;
16189;SDS011;41754;51.498;7.540;2023-06-05T11:58:34;3.47;;;3.17;;
16189;SDS011;41754;51.498;7.540;2023-06-05T12:01:03;4.18;;;3.13;;
16189;SDS011;41754;51.498;7.540;2023-06-05T12:03:33;5.05;;;2.90;;
16189;SDS011;41754;51.498;7.540;2023-06-05T12:06:02;3.97;;;3.25;;
16189;SDS011;41754;51.498;7.540;2023-06-05T12:08:31;6.95;;;3.83;;
16189;SDS011;41754;51.498;7.540;2023-06-05T12:11:01;7.43;;;3.80;;
16189;SDS011;41754;51.498;7.540;2023-06-05T12:13:47;3.15;;;2.60;;
16189;SDS011;41754;51.498;7.540;2023-06-05T12:16:17;3.05;;;2.75;;
16189;SDS011;41754;51.498;7.540;2023-06-05T12:18:46;3.58;;;2.70;;
16189;SDS011;41754;51.498;7.540;2023-06-05T12:21:31;6.22;;;3.30;;
16189;SDS011;41754;51.498;7.540;2023-06-05T12:24:03;5.72;;;4.78;;
16189;SDS011;41754;51.498;7.540;2023-06-05T12:26:47;5.93;;;2.78;;
16189;SDS011;41754;51.498;7.540;2023-06-05T12:29:19;3.65;;;3.00;;
16189;SDS011;41754;51.498;7.540;2023-06-05T12:31:48;3.20;;;2.72;;
16189;SDS011;41754;51.498;7.540;2023-06-05T12:34:18;3.30;;;2.50;;
16189;SDS011;41754;51.498;7.540;2023-06-05T12:36:46;5.38;;;2.50;;
16189;SDS011;41754;51.498;7.540;2023-06-05T12:39:15;3.47;;;2.40;;
16189;SDS011;41754;51.498;7.540;2023-06-05T12:41:43;3.70;;;2.38;;
16189;SDS011;41754;51.498;7.540;2023-06-05T12:44:11;3.95;;;2.22;;
16189;SDS011;41754;51.498;7.540;2023-06-05T12:46:40;2.70;;;2.50;;
16189;SDS011;41754;51.498;7.540;2023-06-05T12:49:08;2.88;;;2.67;;
16189;SDS011;41754;51.498;7.540;2023-06-05T12:51:37;3.20;;;2.88;;
16189;SDS011;41754;51.498;7.540;2023-06-05T12:54:06;4.13;;;2.42;;
16189;SDS011;41754;51.498;7.540;2023-06-05T12:56:34;2.35;;;2.15;;
16189;SDS011;41754;51.498;7.540;2023-06-05T12:59:02;2.60;;;2.40;;
16189;SDS011;41754;51.498;7.540;2023-06-05T13:01:29;3.95;;;2.63;;
16189;SDS011;41754;51.498;7.540;2023-06-05T13:03:59;4.03;;;2.28;;
16189;SDS011;41754;51.498;7.540;2023-06-05T13:06:27;5.93;;;2.83;;
16189;SDS011;41754;51.498;7.540;2023-06-05T13:08:55;3.30;;;2.30;;
16189;SDS011;41754;51.498;7.540;2023-06-05T13:11:23;3.95;;;2.25;;
16189;SDS011;41754;51.498;7.540;2023-06-05T13:13:51;3.22;;;2.22;;
16189;SDS011;41754;51.498;7.540;2023-06-05T13:16:19;3.65;;;2.60;;
16189;SDS011;41754;51.498;7.540;2023-06-05T13:18:47;2.47;;;2.30;;
16189;SDS011;41754;51.498;7.540;2023-06-05T13:21:16;4.32;;;2.20;;
16189;SDS011;41754;51.498;7.540;2023-06-05T13:23:44;2.72;;;2.05;;
16189;SDS011;41754;51.498;7.540;2023-06-05T13:26:12;5.07;;;2.17;;
16189;SDS011;41754;51.498;7.540;2023-06-05T13:28:40;2.20;;;2.00;;
16189;SDS011;41754;51.498;7.540;2023-06-05T13:31:10;4.95;;;2.20;;
16189;SDS011;41754;51.498;7.540;2023-06-05T13:33:39;2.70;;;2.03;;
16189;SDS011;41754;51.498;7.540;2023-06-05T13:36:08;2.08;;;1.98;;
16189;SDS011;41754;51.498;7.540;2023-06-05T13:38:37;3.67;;;2.20;;
16189;SDS011;41754;51.498;7.540;2023-06-05T13:41:05;2.35;;;1.90;;
16189;SDS011;41754;51.498;7.540;2023-06-05T13:43:33;3.55;;;2.28;;
16189;SDS011;41754;51.498;7.540;2023-06-05T13:46:02;3.22;;;1.90;;
16189;SDS011;41754;51.498;7.540;2023-06-05T13:48:30;4.03;;;2.60;;
16189;SDS011;41754;51.498;7.540;2023-06-05T13:51:00;2.33;;;1.83;;
16189;SDS011;41754;51.498;7.540;2023-06-05T13:53:28;1.98;;;1.88;;
16189;SDS011;41754;51.498;7.540;2023-06-05T13:56:02;2.10;;;1.92;;
16189;SDS011;41754;51.498;7.540;2023-06-05T13:58:31;2.67;;;2.08;;
16189;SDS011;41754;51.498;7.540;2023-06-05T14:00:59;3.25;;;2.40;;
16189;SDS011;41754;51.498;7.540;2023-06-05T14:03:27;3.78;;;2.20;;
16189;SDS011;41754;51.498;7.540;2023-06-05T14:05:55;2.40;;;2.20;;
16189;SDS011;41754;51.498;7.540;2023-06-05T14:08:23;2.85;;;2.00;;
16189;SDS011;41754;51.498;7.540;2023-06-05T14:10:51;3.35;;;2.38;;
16189;SDS011;41754;51.498;7.540;2023-06-05T14:13:20;2.25;;;2.03;;
16189;SDS011;41754;51.498;7.540;2023-06-05T14:15:48;2.53;;;2.33;;
16189;SDS011;41754;51.498;7.540;2023-06-05T14:18:16;3.30;;;2.20;;
16189;SDS011;41754;51.498;7.540;2023-06-05T14:20:44;3.25;;;2.20;;
16189;SDS011;41754;51.498;7.540;2023-06-05T14:23:12;2.22;;;1.90;;
16189;SDS011;41754;51.498;7.540;2023-06-05T14:25:41;2.65;;;2.45;;
16189;SDS011;41754;51.498;7.540;2023-06-05T14:28:09;2.40;;;2.20;;
16189;SDS011;41754;51.498;7.540;2023-06-05T14:30:38;3.78;;;2.08;;
16189;SDS011;41754;51.498;7.540;2023-06-05T14:33:06;2.75;;;2.42;;
16189;SDS011;41754;51.498;7.540;2023-06-05T14:35:34;3.30;;;2.63;;
16189;SDS011;41754;51.498;7.540;2023-06-05T14:38:02;3.90;;;2.58;;
16189;SDS011;41754;51.498;7.540;2023-06-05T14:40:30;3.47;;;2.55;;
16189;SDS011;41754;51.498;7.540;2023-06-05T14:42:59;4.45;;;2.65;;
16189;SDS011;41754;51.498;7.540;2023-06-05T14:45:29;3.05;;;2.38;;
16189;SDS011;41754;51.498;7.540;2023-06-05T14:47:58;2.90;;;2.70;;
16189;SDS011;41754;51.498;7.540;2023-06-05T14:50:26;3.90;;;2.47;;
16189;SDS011;41754;51.498;7.540;2023-06-05T14:52:55;4.88;;;2.28;;
16189;SDS011;41754;51.498;7.540;2023-06-05T14:55:23;4.30;;;2.70;;
16189;SDS011;41754;51.498;7.540;2023-06-05T14:57:51;2.83;;;2.20;;
16189;SDS011;41754;51.498;7.540;2023-06-05T15:00:19;4.22;;;2.47;;
16189;SDS011;41754;51.498;7.540;2023-06-05T15:02:46;4.00;;;2.65;;
16189;SDS011;41754;51.498;7.540;2023-06-05T15:05:16;3.95;;;2.72;;
16189;SDS011;41754;51.498;7.540;2023-06-05T15:07:44;4.50;;;3.33;;
16189;SDS011;41754;51.498;7.540;2023-06-05T15:10:11;2.97;;;2.67;;
16189;SDS011;41754;51.498;7.540;2023-06-05T15:12:41;2.85;;;2.60;;
16189;SDS011;41754;51.498;7.540;2023-06-05T15:15:09;3.22;;;2.92;;